createdAt,value
2018-09-18T00:00:02.285Z,799.21
2018-09-18T00:00:06.381Z,799.21
2018-09-18T00:00:10.593Z,799.23
2018-09-18T00:00:14.851Z,799.23
2018-09-18T00:00:19.051Z,799.27
2018-09-18T00:00:23.358Z,799.24
2018-09-18T00:00:27.568Z,799.25
2018-09-18T00:00:31.869Z,799.23
2018-09-18T00:00:36.170Z,799.28
2018-09-18T00:00:40.482Z,799.3
2018-09-18T00:00:44.582Z,799.26
2018-09-18T00:00:48.893Z,799.31
2018-09-18T00:00:52.980Z,799.31
2018-09-18T00:00:57.182Z,799.31
2018-09-18T00:01:01.491Z,799.32
2018-09-18T00:01:05.695Z,799.3
2018-09-18T00:01:09.853Z,799.32
2018-09-18T00:01:14.059Z,799.33
2018-09-18T00:01:18.373Z,799.31
2018-09-18T00:01:22.722Z,799.28
2018-09-18T00:01:26.820Z,799.27
2018-09-18T00:01:31.032Z,799.34
2018-09-18T00:01:35.349Z,799.39
2018-09-18T00:01:39.655Z,799.35
2018-09-18T00:01:43.967Z,799.37
2018-09-18T00:01:48.171Z,799.36
2018-09-18T00:01:52.472Z,799.38
2018-09-18T00:01:56.776Z,799.39
2018-09-18T00:02:00.982Z,799.42
2018-09-18T00:02:05.182Z,799.4
2018-09-18T00:02:09.495Z,799.35
2018-09-18T00:02:13.589Z,799.4
2018-09-18T00:02:17.677Z,799.41
2018-09-18T00:02:21.980Z,799.43
2018-09-18T00:02:26.176Z,799.42
2018-09-18T00:02:30.376Z,799.44
2018-09-18T00:02:34.573Z,799.42
2018-09-18T00:02:38.775Z,799.42
2018-09-18T00:02:43.081Z,799.45
2018-09-18T00:02:47.277Z,799.44
2018-09-18T00:02:51.585Z,799.39
2018-09-18T00:02:55.782Z,799.44
2018-09-18T00:02:59.980Z,799.41
2018-09-18T00:03:04.212Z,799.43
2018-09-18T00:03:08.526Z,799.47
2018-09-18T00:03:12.825Z,799.44
2018-09-18T00:03:16.917Z,799.4
2018-09-18T00:03:21.119Z,799.45
2018-09-18T00:03:25.431Z,799.45
2018-09-18T00:03:29.625Z,799.47
2018-09-18T00:03:33.824Z,799.42
2018-09-18T00:03:37.923Z,799.47
2018-09-18T00:03:42.010Z,799.48
2018-09-18T00:03:46.209Z,799.47
2018-09-18T00:03:50.402Z,799.49
2018-09-18T00:03:54.605Z,799.46
2018-09-18T00:03:58.903Z,799.44
2018-09-18T00:04:02.888Z,799.43
2018-09-18T00:04:07.097Z,799.44
2018-09-18T00:04:11.298Z,799.44
2018-09-18T00:04:15.609Z,799.45
2018-09-18T00:04:19.912Z,799.45
2018-09-18T00:04:24.109Z,799.42
2018-09-18T00:04:28.311Z,799.45
2018-09-18T00:04:32.609Z,799.44
2018-09-18T00:04:36.915Z,799.45
2018-09-18T00:04:41.046Z,799.4
2018-09-18T00:04:45.142Z,799.42
2018-09-18T00:04:49.337Z,799.42
2018-09-18T00:04:53.542Z,799.45
2018-09-18T00:04:57.740Z,799.42
2018-09-18T00:05:02.047Z,799.42
2018-09-18T00:05:06.137Z,799.41
2018-09-18T00:05:10.437Z,799.42
2018-09-18T00:05:14.744Z,799.4
2018-09-18T00:05:19.071Z,799.37
2018-09-18T00:05:23.375Z,799.36
2018-09-18T00:05:27.465Z,799.33
2018-09-18T00:05:31.784Z,799.37
2018-09-18T00:05:35.985Z,799.36
2018-09-18T00:05:40.093Z,799.36
2018-09-18T00:05:44.297Z,799.37
2018-09-18T00:05:48.396Z,799.33
2018-09-18T00:05:52.481Z,799.3
2018-09-18T00:05:56.575Z,799.34
2018-09-18T00:06:00.886Z,799.35
2018-09-18T00:06:05.203Z,799.34
2018-09-18T00:06:09.523Z,799.31
2018-09-18T00:06:13.839Z,799.34
2018-09-18T00:06:18.142Z,799.3
2018-09-18T00:06:22.453Z,799.33
2018-09-18T00:06:26.765Z,799.32
2018-09-18T00:06:30.856Z,799.33
2018-09-18T00:06:35.180Z,799.35
2018-09-18T00:06:39.377Z,799.3
2018-09-18T00:06:43.679Z,799.33
2018-09-18T00:06:47.986Z,799.31
2018-09-18T00:06:52.085Z,799.28
2018-09-18T00:06:56.400Z,799.26
2018-09-18T00:07:00.713Z,799.3
2018-09-18T00:07:04.913Z,799.25
2018-09-18T00:07:09.219Z,799.26
2018-09-18T00:07:13.518Z,799.26
2018-09-18T00:07:17.724Z,799.24
2018-09-18T00:07:22.028Z,799.29
2018-09-18T00:07:26.340Z,799.26
2018-09-18T00:07:30.546Z,799.24
2018-09-18T00:07:34.903Z,799.2
2018-09-18T00:07:39.204Z,799.24
2018-09-18T00:07:43.486Z,799.23
2018-09-18T00:07:47.952Z,799.21
2018-09-18T00:07:52.259Z,799.16
2018-09-18T00:07:56.358Z,799.2
2018-09-18T00:08:00.706Z,799.19
2018-09-18T00:08:04.797Z,799.2
2018-09-18T00:08:09.001Z,799.2
2018-09-18T00:08:13.323Z,799.2
2018-09-18T00:08:17.526Z,799.19
2018-09-18T00:08:21.784Z,799.19
2018-09-18T00:08:26.092Z,799.16
2018-09-18T00:08:30.293Z,799.19
2018-09-18T00:08:34.500Z,799.15
2018-09-18T00:08:38.708Z,799.17
2018-09-18T00:08:43.060Z,799.11
2018-09-18T00:08:47.363Z,799.13
2018-09-18T00:08:51.457Z,799.14
2018-09-18T00:08:55.808Z,799.12
2018-09-18T00:09:00.116Z,799.12
2018-09-18T00:09:04.318Z,799.14
2018-09-18T00:09:08.410Z,799.12
2018-09-18T00:09:12.721Z,799.13
2018-09-18T00:09:16.926Z,799.11
2018-09-18T00:09:21.228Z,799.11
2018-09-18T00:09:25.336Z,799.13
2018-09-18T00:09:29.544Z,799.12
2018-09-18T00:09:33.529Z,799.11
2018-09-18T00:09:37.838Z,799.08
2018-09-18T00:09:42.047Z,799.09
2018-09-18T00:09:46.355Z,799.07
2018-09-18T00:09:50.557Z,799.11
2018-09-18T00:09:54.873Z,799.04
2018-09-18T00:09:59.183Z,799.07
2018-09-18T00:10:03.395Z,799.09
2018-09-18T00:10:07.488Z,799.07
2018-09-18T00:10:11.843Z,799.11
2018-09-18T00:10:16.053Z,799.06
2018-09-18T00:10:20.391Z,799.06
2018-09-18T00:10:24.723Z,799.05
2018-09-18T00:10:29.051Z,799.04
2018-09-18T00:10:33.144Z,799.08
2018-09-18T00:10:37.451Z,799.04
2018-09-18T00:10:41.646Z,799.08
2018-09-18T00:10:45.739Z,799.04
2018-09-18T00:10:50.045Z,799.04
2018-09-18T00:10:54.239Z,799.04
2018-09-18T00:10:58.560Z,799.03
2018-09-18T00:11:02.651Z,799.06
2018-09-18T00:11:06.864Z,799.01
2018-09-18T00:11:11.186Z,799.02
2018-09-18T00:11:15.490Z,798.99
2018-09-18T00:11:19.797Z,799.02
2018-09-18T00:11:24.100Z,799.02
2018-09-18T00:11:28.313Z,798.97
2018-09-18T00:11:32.515Z,799.01
2018-09-18T00:11:36.817Z,798.94
2018-09-18T00:11:41.024Z,798.99
2018-09-18T00:11:45.114Z,798.96
2018-09-18T00:11:49.314Z,798.95
2018-09-18T00:11:53.629Z,798.92
2018-09-18T00:11:57.934Z,798.98
2018-09-18T00:12:02.139Z,798.96
2018-09-18T00:12:06.341Z,798.93
2018-09-18T00:12:10.643Z,798.99
2018-09-18T00:12:14.955Z,798.95
2018-09-18T00:12:18.938Z,798.93
2018-09-18T00:12:23.132Z,798.97
2018-09-18T00:12:27.486Z,798.96
2018-09-18T00:12:31.800Z,798.97
2018-09-18T00:12:35.889Z,798.91
2018-09-18T00:12:40.194Z,798.96
2018-09-18T00:12:44.492Z,798.97
2018-09-18T00:12:48.819Z,798.94
2018-09-18T00:12:53.127Z,798.94
2018-09-18T00:12:57.432Z,798.91
2018-09-18T00:13:01.642Z,798.88
2018-09-18T00:13:05.784Z,798.89
2018-09-18T00:13:09.985Z,798.92
2018-09-18T00:13:14.187Z,798.92
2018-09-18T00:13:18.386Z,798.93
2018-09-18T00:13:22.588Z,798.87
2018-09-18T00:13:26.898Z,798.92
2018-09-18T00:13:31.217Z,798.95
2018-09-18T00:13:35.526Z,798.93
2018-09-18T00:13:39.841Z,798.92
2018-09-18T00:13:44.040Z,798.93
2018-09-18T00:13:48.233Z,798.88
2018-09-18T00:13:52.542Z,798.93
2018-09-18T00:13:56.744Z,798.88
2018-09-18T00:14:01.052Z,798.91
2018-09-18T00:14:05.365Z,798.89
2018-09-18T00:14:09.671Z,798.96
2018-09-18T00:14:13.980Z,798.94
2018-09-18T00:14:18.232Z,798.92
2018-09-18T00:14:22.431Z,798.92
2018-09-18T00:14:26.632Z,798.93
2018-09-18T00:14:30.959Z,798.94
2018-09-18T00:14:35.062Z,798.91
2018-09-18T00:14:39.367Z,798.91
2018-09-18T00:14:43.670Z,798.93
2018-09-18T00:14:47.759Z,798.9
2018-09-18T00:14:52.076Z,798.92
2018-09-18T00:14:56.385Z,798.91
2018-09-18T00:15:00.477Z,798.91
2018-09-18T00:15:04.622Z,798.91
2018-09-18T00:15:08.928Z,798.92
2018-09-18T00:15:13.229Z,798.89
2018-09-18T00:15:17.590Z,798.92
2018-09-18T00:15:21.791Z,798.9
2018-09-18T00:15:25.999Z,798.9
2018-09-18T00:15:30.302Z,798.92
2018-09-18T00:15:34.608Z,798.88
2018-09-18T00:15:38.928Z,798.89
2018-09-18T00:15:43.017Z,798.91
2018-09-18T00:15:47.220Z,798.9
2018-09-18T00:15:51.528Z,798.92
2018-09-18T00:15:55.841Z,798.89
2018-09-18T00:16:00.159Z,798.86
2018-09-18T00:16:04.251Z,798.95
2018-09-18T00:16:08.449Z,798.91
2018-09-18T00:16:12.658Z,798.92
2018-09-18T00:16:16.971Z,798.92
2018-09-18T00:16:21.280Z,798.92
2018-09-18T00:16:25.588Z,798.87
2018-09-18T00:16:29.891Z,798.93
2018-09-18T00:16:34.200Z,798.88
2018-09-18T00:16:38.294Z,798.89
2018-09-18T00:16:42.497Z,798.91
2018-09-18T00:16:46.595Z,798.88
2018-09-18T00:16:50.799Z,798.87
2018-09-18T00:16:55.101Z,798.86
2018-09-18T00:16:59.404Z,798.89
2018-09-18T00:17:03.596Z,798.89
2018-09-18T00:17:07.802Z,798.9
2018-09-18T00:17:12.106Z,798.88
2018-09-18T00:17:16.198Z,798.85
2018-09-18T00:17:20.395Z,798.89
2018-09-18T00:17:24.487Z,798.9
2018-09-18T00:17:28.802Z,798.91
2018-09-18T00:17:33.008Z,798.88
2018-09-18T00:17:37.099Z,798.88
2018-09-18T00:17:41.417Z,798.91
2018-09-18T00:17:45.615Z,798.91
2018-09-18T00:17:49.707Z,798.86
2018-09-18T00:17:53.903Z,798.86
2018-09-18T00:17:58.000Z,798.87
2018-09-18T00:18:02.099Z,798.86
2018-09-18T00:18:06.296Z,798.91
2018-09-18T00:18:10.612Z,798.89
2018-09-18T00:18:14.821Z,798.88
2018-09-18T00:18:19.129Z,798.87
2018-09-18T00:18:23.435Z,798.85
2018-09-18T00:18:27.634Z,798.89
2018-09-18T00:18:31.941Z,798.87
2018-09-18T00:18:36.246Z,798.87
2018-09-18T00:18:40.457Z,798.88
2018-09-18T00:18:44.758Z,798.87
2018-09-18T00:18:49.076Z,798.8
2018-09-18T00:18:53.280Z,798.86
2018-09-18T00:18:57.581Z,798.86
2018-09-18T00:19:01.900Z,798.87
2018-09-18T00:19:05.999Z,798.87
2018-09-18T00:19:10.202Z,798.88
2018-09-18T00:19:14.510Z,798.86
2018-09-18T00:19:18.713Z,798.83
2018-09-18T00:19:23.025Z,798.86
2018-09-18T00:19:27.230Z,798.86
2018-09-18T00:19:31.327Z,798.87
2018-09-18T00:19:35.638Z,798.83
2018-09-18T00:19:39.735Z,798.85
2018-09-18T00:19:44.043Z,798.85
2018-09-18T00:19:48.244Z,798.86
2018-09-18T00:19:52.548Z,798.84
2018-09-18T00:19:56.651Z,798.83
2018-09-18T00:20:00.849Z,798.83
2018-09-18T00:20:04.886Z,798.84
2018-09-18T00:20:08.979Z,798.77
2018-09-18T00:20:13.185Z,798.83
2018-09-18T00:20:17.500Z,798.81
2018-09-18T00:20:21.594Z,798.81
2018-09-18T00:20:25.799Z,798.82
2018-09-18T00:20:30.004Z,798.81
2018-09-18T00:20:34.104Z,798.8
2018-09-18T00:20:38.192Z,798.78
2018-09-18T00:20:42.394Z,798.82
2018-09-18T00:20:46.704Z,798.78
2018-09-18T00:20:50.902Z,798.8
2018-09-18T00:20:55.117Z,798.8
2018-09-18T00:20:59.424Z,798.82
2018-09-18T00:21:03.891Z,798.75
2018-09-18T00:21:08.201Z,798.82
2018-09-18T00:21:12.506Z,798.8
2018-09-18T00:21:16.821Z,798.78
2018-09-18T00:21:21.125Z,798.78
2018-09-18T00:21:25.320Z,798.8
2018-09-18T00:21:29.524Z,798.79
2018-09-18T00:21:33.622Z,798.81
2018-09-18T00:21:37.930Z,798.75
2018-09-18T00:21:42.243Z,798.77
2018-09-18T00:21:46.441Z,798.77
2018-09-18T00:21:50.740Z,798.76
2018-09-18T00:21:54.843Z,798.8
2018-09-18T00:21:58.938Z,798.78
2018-09-18T00:22:03.031Z,798.8
2018-09-18T00:22:07.333Z,798.77
2018-09-18T00:22:11.638Z,798.75
2018-09-18T00:22:15.945Z,798.77
2018-09-18T00:22:20.256Z,798.73
2018-09-18T00:22:24.553Z,798.77
2018-09-18T00:22:28.754Z,798.81
2018-09-18T00:22:33.061Z,798.75
2018-09-18T00:22:37.371Z,798.76
2018-09-18T00:22:41.462Z,798.76
2018-09-18T00:22:45.692Z,798.74
2018-09-18T00:22:50.008Z,798.77
2018-09-18T00:22:54.210Z,798.75
2018-09-18T00:22:58.434Z,798.77
2018-09-18T00:23:02.639Z,798.69
2018-09-18T00:23:06.843Z,798.75
2018-09-18T00:23:11.057Z,798.73
2018-09-18T00:23:15.256Z,798.78
2018-09-18T00:23:19.560Z,798.73
2018-09-18T00:23:23.654Z,798.75
2018-09-18T00:23:27.960Z,798.74
2018-09-18T00:23:32.161Z,798.77
2018-09-18T00:23:36.488Z,798.72
2018-09-18T00:23:40.814Z,798.74
2018-09-18T00:23:44.910Z,798.73
2018-09-18T00:23:49.001Z,798.75
2018-09-18T00:23:53.301Z,798.74
2018-09-18T00:23:57.603Z,798.73
2018-09-18T00:24:01.914Z,798.75
2018-09-18T00:24:06.112Z,798.74
2018-09-18T00:24:10.314Z,798.74
2018-09-18T00:24:14.512Z,798.67
2018-09-18T00:24:18.716Z,798.69
2018-09-18T00:24:23.021Z,798.68
2018-09-18T00:24:27.337Z,798.68
2018-09-18T00:24:31.533Z,798.72
2018-09-18T00:24:35.740Z,798.71
2018-09-18T00:24:40.042Z,798.69
2018-09-18T00:24:44.247Z,798.73
2018-09-18T00:24:48.447Z,798.69
2018-09-18T00:24:52.751Z,798.71
2018-09-18T00:24:56.847Z,798.67
2018-09-18T00:25:01.153Z,798.69
2018-09-18T00:25:05.360Z,798.67
2018-09-18T00:25:09.672Z,798.7
2018-09-18T00:25:13.878Z,798.7
2018-09-18T00:25:18.093Z,798.69
2018-09-18T00:25:22.405Z,798.68
2018-09-18T00:25:26.608Z,798.66
2018-09-18T00:25:30.812Z,798.66
2018-09-18T00:25:35.016Z,798.66
2018-09-18T00:25:39.331Z,798.63
2018-09-18T00:25:43.527Z,798.66
2018-09-18T00:25:47.619Z,798.63
2018-09-18T00:25:51.817Z,798.6
2018-09-18T00:25:56.123Z,798.6
2018-09-18T00:26:00.326Z,798.62
2018-09-18T00:26:04.633Z,798.58
2018-09-18T00:26:08.945Z,798.61
2018-09-18T00:26:13.144Z,798.6
2018-09-18T00:26:17.447Z,798.61
2018-09-18T00:26:21.755Z,798.56
2018-09-18T00:26:26.069Z,798.52
2018-09-18T00:26:30.377Z,798.55
2018-09-18T00:26:34.703Z,798.55
2018-09-18T00:26:38.905Z,798.51
2018-09-18T00:26:43.008Z,798.52
2018-09-18T00:26:47.103Z,798.47
2018-09-18T00:26:51.312Z,798.53
2018-09-18T00:26:55.621Z,798.51
2018-09-18T00:26:59.714Z,798.48
2018-09-18T00:27:03.691Z,798.5
2018-09-18T00:27:07.887Z,798.49
2018-09-18T00:27:12.088Z,798.48
2018-09-18T00:27:16.298Z,798.46
2018-09-18T00:27:20.284Z,798.47
2018-09-18T00:27:24.532Z,798.45
2018-09-18T00:27:28.839Z,798.43
2018-09-18T00:27:33.046Z,798.43
2018-09-18T00:27:37.249Z,798.45
2018-09-18T00:27:41.453Z,798.44
2018-09-18T00:27:45.562Z,798.4
2018-09-18T00:27:49.882Z,798.38
2018-09-18T00:27:54.191Z,798.38
2018-09-18T00:27:58.504Z,798.38
2018-09-18T00:28:02.699Z,798.38
2018-09-18T00:28:06.794Z,798.34
2018-09-18T00:28:11.094Z,798.35
2018-09-18T00:28:15.442Z,798.33
2018-09-18T00:28:19.755Z,798.34
2018-09-18T00:28:24.062Z,798.31
2018-09-18T00:28:28.265Z,798.32
2018-09-18T00:28:32.573Z,798.3
2018-09-18T00:28:36.777Z,798.31
2018-09-18T00:28:41.080Z,798.29
2018-09-18T00:28:45.287Z,798.29
2018-09-18T00:28:49.491Z,798.29
2018-09-18T00:28:53.610Z,798.21
2018-09-18T00:28:57.916Z,798.25
2018-09-18T00:29:02.113Z,798.18
2018-09-18T00:29:06.312Z,798.24
2018-09-18T00:29:10.611Z,798.23
2018-09-18T00:29:14.602Z,798.23
2018-09-18T00:29:18.905Z,798.2
2018-09-18T00:29:23.213Z,798.2
2018-09-18T00:29:27.310Z,798.21
2018-09-18T00:29:31.616Z,798.21
2018-09-18T00:29:35.823Z,798.19
2018-09-18T00:29:40.019Z,798.18
2018-09-18T00:29:44.321Z,798.14
2018-09-18T00:29:48.520Z,798.17
2018-09-18T00:29:52.821Z,798.14
2018-09-18T00:29:57.131Z,798.06
2018-09-18T00:30:01.228Z,798.13
2018-09-18T00:30:05.432Z,798.12
2018-09-18T00:30:09.630Z,798.11
2018-09-18T00:30:13.835Z,798.12
2018-09-18T00:30:18.144Z,798.12
2018-09-18T00:30:22.465Z,798.09
2018-09-18T00:30:26.769Z,798.09
2018-09-18T00:30:30.974Z,798.05
2018-09-18T00:30:35.276Z,798.04
2018-09-18T00:30:39.580Z,798.08
2018-09-18T00:30:43.882Z,798.05
2018-09-18T00:30:47.974Z,798.01
2018-09-18T00:30:52.169Z,798.01
2018-09-18T00:30:56.373Z,798
2018-09-18T00:31:00.681Z,798
2018-09-18T00:31:04.897Z,797.94
2018-09-18T00:31:09.104Z,797.94
2018-09-18T00:31:13.405Z,797.98
2018-09-18T00:31:17.708Z,797.95
2018-09-18T00:31:21.908Z,797.95
2018-09-18T00:31:25.997Z,797.93
2018-09-18T00:31:30.109Z,797.97
2018-09-18T00:31:34.414Z,797.92
2018-09-18T00:31:38.511Z,797.96
2018-09-18T00:31:42.707Z,797.94
2018-09-18T00:31:46.694Z,797.91
2018-09-18T00:31:50.903Z,797.88
2018-09-18T00:31:55.101Z,797.9
2018-09-18T00:31:59.404Z,797.87
2018-09-18T00:32:03.714Z,797.9
2018-09-18T00:32:07.805Z,797.82
2018-09-18T00:32:12.110Z,797.87
2018-09-18T00:32:16.418Z,797.84
2018-09-18T00:32:20.613Z,797.85
2018-09-18T00:32:24.941Z,797.8
2018-09-18T00:32:29.142Z,797.82
2018-09-18T00:32:33.347Z,797.81
2018-09-18T00:32:37.562Z,797.77
2018-09-18T00:32:41.867Z,797.79
2018-09-18T00:32:46.189Z,797.77
2018-09-18T00:32:50.502Z,797.75
2018-09-18T00:32:54.801Z,797.75
2018-09-18T00:32:59.157Z,797.73
2018-09-18T00:33:03.361Z,797.74
2018-09-18T00:33:07.669Z,797.7
2018-09-18T00:33:11.927Z,797.75
2018-09-18T00:33:16.237Z,797.69
2018-09-18T00:33:20.540Z,797.67
2018-09-18T00:33:24.849Z,797.67
2018-09-18T00:33:29.038Z,797.69
2018-09-18T00:33:33.336Z,797.66
2018-09-18T00:33:37.539Z,797.66
2018-09-18T00:33:41.852Z,797.65
2018-09-18T00:33:46.175Z,797.62
2018-09-18T00:33:50.377Z,797.6
2018-09-18T00:33:54.684Z,797.63
2018-09-18T00:33:59.000Z,797.62
2018-09-18T00:34:03.245Z,797.6
2018-09-18T00:34:07.548Z,797.58
2018-09-18T00:34:11.852Z,797.56
2018-09-18T00:34:16.064Z,797.5
2018-09-18T00:34:20.376Z,797.51
2018-09-18T00:34:24.592Z,797.49
2018-09-18T00:34:28.686Z,797.5
2018-09-18T00:34:32.887Z,797.47
2018-09-18T00:34:37.090Z,797.48
2018-09-18T00:34:41.290Z,797.49
2018-09-18T00:34:45.487Z,797.43
2018-09-18T00:34:49.719Z,797.46
2018-09-18T00:34:54.020Z,797.44
2018-09-18T00:34:58.216Z,797.44
2018-09-18T00:35:02.309Z,797.44
2018-09-18T00:35:06.187Z,797.41
2018-09-18T00:35:10.489Z,797.45
2018-09-18T00:35:14.802Z,797.43
2018-09-18T00:35:19.098Z,797.43
2018-09-18T00:35:23.199Z,797.42
2018-09-18T00:35:27.499Z,797.36
2018-09-18T00:35:31.805Z,797.39
2018-09-18T00:35:36.106Z,797.34
2018-09-18T00:35:40.109Z,797.35
2018-09-18T00:35:44.308Z,797.29
2018-09-18T00:35:48.617Z,797.32
2018-09-18T00:35:52.713Z,797.31
2018-09-18T00:35:56.910Z,797.32
2018-09-18T00:36:01.053Z,797.31
2018-09-18T00:36:05.359Z,797.28
2018-09-18T00:36:09.565Z,797.28
2018-09-18T00:36:13.890Z,797.29
2018-09-18T00:36:18.194Z,797.3
2018-09-18T00:36:22.508Z,797.29
2018-09-18T00:36:26.813Z,797.26
2018-09-18T00:36:31.009Z,797.29
2018-09-18T00:36:35.314Z,797.25
2018-09-18T00:36:39.624Z,797.22
2018-09-18T00:36:43.824Z,797.24
2018-09-18T00:36:48.137Z,797.2
2018-09-18T00:36:52.281Z,797.21
2018-09-18T00:36:56.597Z,797.2
2018-09-18T00:37:00.899Z,797.2
2018-09-18T00:37:05.193Z,797.16
2018-09-18T00:37:09.393Z,797.12
2018-09-18T00:37:13.484Z,797.16
2018-09-18T00:37:17.785Z,797.17
2018-09-18T00:37:21.983Z,797.2
2018-09-18T00:37:26.296Z,797.13
2018-09-18T00:37:30.597Z,797.13
2018-09-18T00:37:34.899Z,797.13
2018-09-18T00:37:39.200Z,797.12
2018-09-18T00:37:43.392Z,797.1
2018-09-18T00:37:47.592Z,797.1
2018-09-18T00:37:51.807Z,797.08
2018-09-18T00:37:56.112Z,797.06
2018-09-18T00:38:00.413Z,797
2018-09-18T00:38:04.400Z,797.06
2018-09-18T00:38:08.596Z,797.02
2018-09-18T00:38:12.921Z,797.03
2018-09-18T00:38:17.125Z,797.04
2018-09-18T00:38:21.320Z,796.94
2018-09-18T00:38:25.519Z,797.05
2018-09-18T00:38:29.718Z,796.98
2018-09-18T00:38:33.925Z,797
2018-09-18T00:38:38.119Z,797
2018-09-18T00:38:42.320Z,796.99
2018-09-18T00:38:46.572Z,796.95
2018-09-18T00:38:50.768Z,796.98
2018-09-18T00:38:55.067Z,796.98
2018-09-18T00:38:59.377Z,796.98
2018-09-18T00:39:03.582Z,796.93
2018-09-18T00:39:07.676Z,796.93
2018-09-18T00:39:11.878Z,796.88
2018-09-18T00:39:16.083Z,796.9
2018-09-18T00:39:20.393Z,796.91
2018-09-18T00:39:24.586Z,796.93
2018-09-18T00:39:28.678Z,796.88
2018-09-18T00:39:32.877Z,796.9
2018-09-18T00:39:37.180Z,796.87
2018-09-18T00:39:41.482Z,796.85
2018-09-18T00:39:45.679Z,796.83
2018-09-18T00:39:49.882Z,796.85
2018-09-18T00:39:54.080Z,796.87
2018-09-18T00:39:58.277Z,796.83
2018-09-18T00:40:02.472Z,796.83
2018-09-18T00:40:06.466Z,796.85
2018-09-18T00:40:10.464Z,796.83
2018-09-18T00:40:14.775Z,796.84
2018-09-18T00:40:18.979Z,796.86
2018-09-18T00:40:23.170Z,796.83
2018-09-18T00:40:27.472Z,796.83
2018-09-18T00:40:31.782Z,796.8
2018-09-18T00:40:36.085Z,796.77
2018-09-18T00:40:40.287Z,796.84
2018-09-18T00:40:44.591Z,796.83
2018-09-18T00:40:48.894Z,796.8
2018-09-18T00:40:53.090Z,796.85
2018-09-18T00:40:57.399Z,796.8
2018-09-18T00:41:01.703Z,796.79
2018-09-18T00:41:06.014Z,796.76
2018-09-18T00:41:10.220Z,796.78
2018-09-18T00:41:14.420Z,796.78
2018-09-18T00:41:18.626Z,796.81
2018-09-18T00:41:22.840Z,796.74
2018-09-18T00:41:27.143Z,796.77
2018-09-18T00:41:31.345Z,796.74
2018-09-18T00:41:35.437Z,796.78
2018-09-18T00:41:39.743Z,796.74
2018-09-18T00:41:44.047Z,796.73
2018-09-18T00:41:48.254Z,796.73
2018-09-18T00:41:52.455Z,796.74
2018-09-18T00:41:56.658Z,796.75
2018-09-18T00:42:00.962Z,796.73
2018-09-18T00:42:05.317Z,796.73
2018-09-18T00:42:09.514Z,796.74
2018-09-18T00:42:13.718Z,796.7
2018-09-18T00:42:17.921Z,796.72
2018-09-18T00:42:22.227Z,796.72
2018-09-18T00:42:26.539Z,796.73
2018-09-18T00:42:30.737Z,796.69
2018-09-18T00:42:35.042Z,796.71
2018-09-18T00:42:39.347Z,796.68
2018-09-18T00:42:43.649Z,796.71
2018-09-18T00:42:47.955Z,796.69
2018-09-18T00:42:52.255Z,796.67
2018-09-18T00:42:56.387Z,796.72
2018-09-18T00:43:00.781Z,796.68
2018-09-18T00:43:04.885Z,796.63
2018-09-18T00:43:09.092Z,796.71
2018-09-18T00:43:13.404Z,796.68
2018-09-18T00:43:17.707Z,796.7
2018-09-18T00:43:21.910Z,796.71
2018-09-18T00:43:26.216Z,796.7
2018-09-18T00:43:30.410Z,796.68
2018-09-18T00:43:34.621Z,796.67
2018-09-18T00:43:38.931Z,796.67
2018-09-18T00:43:43.231Z,796.65
2018-09-18T00:43:47.325Z,796.64
2018-09-18T00:43:51.521Z,796.66
2018-09-18T00:43:55.723Z,796.64
2018-09-18T00:44:00.039Z,796.66
2018-09-18T00:44:04.237Z,796.64
2018-09-18T00:44:08.332Z,796.64
2018-09-18T00:44:12.658Z,796.64
2018-09-18T00:44:16.962Z,796.6
2018-09-18T00:44:20.948Z,796.61
2018-09-18T00:44:25.250Z,796.59
2018-09-18T00:44:29.354Z,796.64
2018-09-18T00:44:33.665Z,796.61
2018-09-18T00:44:37.863Z,796.63
2018-09-18T00:44:42.164Z,796.63
2018-09-18T00:44:46.382Z,796.64
2018-09-18T00:44:50.585Z,796.62
2018-09-18T00:44:54.893Z,796.62
2018-09-18T00:44:59.094Z,796.62
2018-09-18T00:45:03.308Z,796.6
2018-09-18T00:45:07.506Z,796.6
2018-09-18T00:45:11.825Z,796.59
2018-09-18T00:45:16.027Z,796.58
2018-09-18T00:45:20.234Z,796.59
2018-09-18T00:45:24.329Z,796.58
2018-09-18T00:45:28.634Z,796.6
2018-09-18T00:45:32.832Z,796.59
2018-09-18T00:45:37.137Z,796.59
2018-09-18T00:45:41.484Z,796.61
2018-09-18T00:45:45.690Z,796.58
2018-09-18T00:45:49.996Z,796.55
2018-09-18T00:45:54.205Z,796.57
2018-09-18T00:45:58.291Z,796.59
2018-09-18T00:46:02.596Z,796.52
2018-09-18T00:46:06.592Z,796.58
2018-09-18T00:46:10.685Z,796.56
2018-09-18T00:46:14.892Z,796.55
2018-09-18T00:46:19.103Z,796.54
2018-09-18T00:46:23.402Z,796.57
2018-09-18T00:46:27.614Z,796.49
2018-09-18T00:46:31.809Z,796.56
2018-09-18T00:46:36.008Z,796.53
2018-09-18T00:46:40.204Z,796.53
2018-09-18T00:46:44.403Z,796.53
2018-09-18T00:46:48.708Z,796.54
2018-09-18T00:46:52.811Z,796.54
2018-09-18T00:46:57.013Z,796.53
2018-09-18T00:47:01.213Z,796.5
2018-09-18T00:47:05.412Z,796.54
2018-09-18T00:47:09.717Z,796.49
2018-09-18T00:47:13.920Z,796.52
2018-09-18T00:47:18.220Z,796.51
2018-09-18T00:47:22.423Z,796.49
2018-09-18T00:47:26.632Z,796.53
2018-09-18T00:47:30.834Z,796.53
2018-09-18T00:47:35.035Z,796.52
2018-09-18T00:47:39.335Z,796.49
2018-09-18T00:47:43.536Z,796.52
2018-09-18T00:47:47.733Z,796.5
2018-09-18T00:47:52.043Z,796.53
2018-09-18T00:47:56.245Z,796.5
2018-09-18T00:48:00.583Z,796.5
2018-09-18T00:48:04.782Z,796.49
2018-09-18T00:48:08.989Z,796.5
2018-09-18T00:48:13.301Z,796.48
2018-09-18T00:48:17.609Z,796.48
2018-09-18T00:48:21.803Z,796.46
2018-09-18T00:48:26.009Z,796.44
2018-09-18T00:48:30.313Z,796.48
2018-09-18T00:48:34.511Z,796.47
2018-09-18T00:48:38.713Z,796.41
2018-09-18T00:48:42.919Z,796.48
2018-09-18T00:48:47.232Z,796.45
2018-09-18T00:48:51.222Z,796.43
2018-09-18T00:48:55.421Z,796.45
2018-09-18T00:48:59.619Z,796.43
2018-09-18T00:49:03.927Z,796.42
2018-09-18T00:49:08.241Z,796.45
2018-09-18T00:49:12.445Z,796.43
2018-09-18T00:49:16.649Z,796.44
2018-09-18T00:49:20.845Z,796.42
2018-09-18T00:49:25.150Z,796.36
2018-09-18T00:49:29.359Z,796.41
2018-09-18T00:49:33.554Z,796.43
2018-09-18T00:49:37.763Z,796.43
2018-09-18T00:49:41.957Z,796.36
2018-09-18T00:49:45.947Z,796.41
2018-09-18T00:49:50.150Z,796.39
2018-09-18T00:49:54.449Z,796.42
2018-09-18T00:49:58.755Z,796.35
2018-09-18T00:50:03.002Z,796.39
2018-09-18T00:50:07.203Z,796.42
2018-09-18T00:50:11.502Z,796.38
2018-09-18T00:50:15.812Z,796.38
2018-09-18T00:50:20.137Z,796.35
2018-09-18T00:50:24.271Z,796.42
2018-09-18T00:50:28.574Z,796.43
2018-09-18T00:50:32.788Z,796.41
2018-09-18T00:50:37.090Z,796.42
2018-09-18T00:50:41.075Z,796.35
2018-09-18T00:50:45.267Z,796.39
2018-09-18T00:50:49.361Z,796.39
2018-09-18T00:50:53.563Z,796.37
2018-09-18T00:50:57.863Z,796.35
2018-09-18T00:51:02.180Z,796.4
2018-09-18T00:51:06.271Z,796.4
2018-09-18T00:51:10.580Z,796.4
2018-09-18T00:51:14.679Z,796.42
2018-09-18T00:51:18.880Z,796.39
2018-09-18T00:51:23.193Z,796.37
2018-09-18T00:51:27.396Z,796.33
2018-09-18T00:51:31.703Z,796.32
2018-09-18T00:51:35.905Z,796.36
2018-09-18T00:51:40.236Z,796.33
2018-09-18T00:51:44.335Z,796.38
2018-09-18T00:51:48.539Z,796.39
2018-09-18T00:51:52.736Z,796.36
2018-09-18T00:51:56.941Z,796.31
2018-09-18T00:52:01.145Z,796.36
2018-09-18T00:52:05.350Z,796.36
2018-09-18T00:52:09.553Z,796.32
2018-09-18T00:52:13.756Z,796.35
2018-09-18T00:52:18.058Z,796.34
2018-09-18T00:52:22.364Z,796.34
2018-09-18T00:52:26.669Z,796.33
2018-09-18T00:52:30.981Z,796.38
2018-09-18T00:52:35.284Z,796.35
2018-09-18T00:52:39.480Z,796.32
2018-09-18T00:52:43.675Z,796.37
2018-09-18T00:52:47.875Z,796.35
2018-09-18T00:52:52.179Z,796.32
2018-09-18T00:52:56.481Z,796.37
2018-09-18T00:53:00.793Z,796.34